Waldo, Wisconsin
Current Conditions -  °F | °C
As of 2:53 PM on Sunday 23 Nov 2014 (Local Time) from KSBM Reporting Station
Light Rain Light Rain  
Wind Chill:   Ceiling: 300
Heat Index:   Visibility: 1.7mi
Dew Point:   Wind: 9mph
Humidity: 93%   Direction: 170°S
Pressure: 29.49"   Gusts: NA
Location:  43.67°N, 87.95°W
Report Text: KSBM 232053Z AUTO 17008KT 1 3/4SM -RA BR OVC003 07/06 A2949 RMK AO2 SLP988 P0003 60015 T00720061 56033
Loading
Personal Weather Stations






























Interactive Weather Map New forecast layout! Learn more

10-Day Weather Forecast

Advertisements
Track Severe Weather on mobile